createdAt,value
2023-05-05T00:01:39.013Z,100533.81
2023-05-05T00:03:40.720Z,100528.88
2023-05-05T00:05:42.802Z,100521.81
2023-05-05T00:07:46.025Z,100526.94
2023-05-05T00:09:47.846Z,100521.91
2023-05-05T00:11:49.504Z,100523.25
2023-05-05T00:13:51.289Z,100524.97
2023-05-05T00:15:54.591Z,100524.44
2023-05-05T00:17:59.328Z,100528.31
2023-05-05T00:20:01.480Z,100530.09
2023-05-05T00:22:03.443Z,100526.22
2023-05-05T00:24:05.996Z,100525.09
2023-05-05T00:26:07.892Z,100529.44
2023-05-05T00:28:09.914Z,100526.69
2023-05-05T00:30:12.097Z,100529.91
2023-05-05T00:32:15.273Z,100534.13
2023-05-05T00:34:16.847Z,100533.97
2023-05-05T00:36:18.495Z,100534.78
2023-05-05T00:38:20.325Z,100535.13
2023-05-05T00:40:22.242Z,100535.25
2023-05-05T00:42:23.854Z,100539.31
2023-05-05T00:44:38.478Z,100536.94
2023-05-05T00:46:41.647Z,100527.00
2023-05-05T00:48:45.414Z,100533.47
2023-05-05T00:50:47.461Z,100529.69
2023-05-05T00:52:50.156Z,100527.53
2023-05-05T00:54:52.270Z,100515.41
2023-05-05T00:56:54.260Z,100527.31
2023-05-05T00:58:56.357Z,100525.28
2023-05-05T01:00:58.168Z,100517.88
2023-05-05T01:03:00.061Z,100521.28
2023-05-05T01:05:03.967Z,100514.09
2023-05-05T01:07:14.722Z,100507.59
2023-05-05T01:09:24.530Z,100493.16
2023-05-05T01:11:35.353Z,100493.63
2023-05-05T01:13:46.408Z,100501.38
2023-05-05T01:15:52.264Z,100494.31
2023-05-05T01:17:58.919Z,100513.31
2023-05-05T01:20:15.148Z,100499.16
2023-05-05T01:22:22.768Z,100484.13
2023-05-05T01:24:43.770Z,100491.19
2023-05-05T01:27:00.352Z,100500.06
2023-05-05T01:29:31.454Z,100500.53
2023-05-05T01:31:52.272Z,100499.38
2023-05-05T01:33:59.682Z,100502.31
2023-05-05T01:36:07.578Z,100502.66
2023-05-05T01:38:14.471Z,100502.44
2023-05-05T01:40:21.337Z,100510.16
2023-05-05T01:42:25.808Z,100513.31
2023-05-05T01:44:28.844Z,100516.38
2023-05-05T01:46:30.525Z,100508.84
2023-05-05T01:48:33.704Z,100515.13
2023-05-05T01:50:36.825Z,100520.91
2023-05-05T01:52:39.994Z,100526.72
2023-05-05T01:54:44.848Z,100519.31
2023-05-05T01:56:47.875Z,100529.31
2023-05-05T01:58:51.632Z,100527.59
2023-05-05T02:00:57.053Z,100531.25
2023-05-05T02:03:00.582Z,100527.63
2023-05-05T02:05:07.303Z,100536.66
2023-05-05T02:07:11.206Z,100529.44
2023-05-05T02:09:15.154Z,100536.72
2023-05-05T02:11:17.390Z,100536.59
2023-05-05T02:13:21.242Z,100542.69
2023-05-05T02:15:24.996Z,100550.91
2023-05-05T02:17:27.612Z,100548.06
2023-05-05T02:19:31.955Z,100555.16
2023-05-05T02:21:35.078Z,100558.69
2023-05-05T02:23:36.815Z,100555.16
2023-05-05T02:25:41.941Z,100556.75
2023-05-05T02:27:46.450Z,100557.53
2023-05-05T02:29:51.656Z,100553.38
2023-05-05T02:31:55.561Z,100562.69
2023-05-05T02:33:59.490Z,100562.53
2023-05-05T02:36:08.658Z,100555.50
2023-05-05T02:38:14.779Z,100561.25
2023-05-05T02:40:22.209Z,100571.03
2023-05-05T02:42:27.652Z,100565.09
2023-05-05T02:44:31.205Z,100562.72
2023-05-05T02:46:33.111Z,100560.19
2023-05-05T02:48:34.782Z,100558.72
2023-05-05T02:50:36.405Z,100557.25
2023-05-05T02:52:38.360Z,100555.34
2023-05-05T02:54:41.620Z,100550.19
2023-05-05T02:56:47.404Z,100556.31
2023-05-05T02:58:53.936Z,100557.13
2023-05-05T03:01:01.911Z,100552.66
2023-05-05T03:03:08.270Z,100560.19
2023-05-05T03:05:12.648Z,100556.16
2023-05-05T03:07:20.939Z,100550.91
2023-05-05T03:09:27.716Z,100556.22
2023-05-05T03:11:35.252Z,100556.06
2023-05-05T03:13:40.369Z,100560.38
2023-05-05T03:15:46.593Z,100563.94
2023-05-05T03:17:50.568Z,100564.41
2023-05-05T03:19:52.489Z,100562.94
2023-05-05T03:21:54.628Z,100558.75
2023-05-05T03:23:57.736Z,100553.16
2023-05-05T03:25:59.400Z,100561.84
2023-05-05T03:28:02.378Z,100561.50
2023-05-05T03:30:04.734Z,100559.13
2023-05-05T03:32:07.691Z,100564.72
2023-05-05T03:34:09.564Z,100562.69
2023-05-05T03:36:11.270Z,100572.78
2023-05-05T03:38:12.945Z,100563.47
2023-05-05T03:40:14.803Z,100562.53
2023-05-05T03:42:16.411Z,100564.78
2023-05-05T03:44:19.423Z,100570.56
2023-05-05T03:46:21.303Z,100571.97
2023-05-05T03:48:22.963Z,100574.88
2023-05-05T03:50:24.748Z,100576.94
2023-05-05T03:52:26.671Z,100579.03
2023-05-05T03:54:28.267Z,100583.69
2023-05-05T03:56:29.942Z,100580.81
2023-05-05T03:58:31.631Z,100578.22
2023-05-05T04:00:34.711Z,100587.53
2023-05-05T04:02:36.476Z,100587.53
2023-05-05T04:04:39.589Z,100585.63
2023-05-05T04:06:41.318Z,100586.41
2023-05-05T04:08:43.075Z,100586.25
2023-05-05T04:10:45.276Z,100587.38
2023-05-05T04:12:46.954Z,100582.25
2023-05-05T04:14:48.683Z,100580.81
2023-05-05T04:16:51.797Z,100585.00
2023-05-05T04:18:53.446Z,100578.88
2023-05-05T04:20:55.256Z,100574.88
2023-05-05T04:22:56.830Z,100584.81
2023-05-05T04:24:58.594Z,100573.78
2023-05-05T04:27:00.434Z,100575.38
2023-05-05T04:29:02.105Z,100586.28
2023-05-05T04:31:04.447Z,100596.84
2023-05-05T04:33:07.472Z,100598.78
2023-05-05T04:35:09.421Z,100605.50
2023-05-05T04:37:11.085Z,100612.88
2023-05-05T04:39:12.847Z,100611.94
2023-05-05T04:41:14.899Z,100605.66
2023-05-05T04:43:16.623Z,100613.34
2023-05-05T04:45:18.422Z,100618.03
2023-05-05T04:47:20.018Z,100609.84
2023-05-05T04:49:23.106Z,100620.59
2023-05-05T04:51:24.799Z,100622.97
2023-05-05T04:53:26.452Z,100622.69
2023-05-05T04:55:30.723Z,100619.63
2023-05-05T04:57:32.280Z,100618.03
2023-05-05T04:59:35.210Z,100619.13
2023-05-05T05:01:38.595Z,100614.31
2023-05-05T05:03:40.582Z,100614.81
2023-05-05T05:05:43.656Z,100617.88
2023-05-05T05:07:45.227Z,100622.84
2023-05-05T05:09:46.845Z,100628.63
2023-05-05T05:11:48.420Z,100635.50
2023-05-05T05:13:50.241Z,100632.28
2023-05-05T05:15:52.144Z,100640.47
2023-05-05T05:17:53.818Z,100648.31
2023-05-05T05:19:55.491Z,100650.72
2023-05-05T05:21:58.538Z,100639.81
2023-05-05T05:24:00.520Z,100644.47
2023-05-05T05:26:02.416Z,100634.03
2023-05-05T05:28:09.338Z,100639.19
2023-05-05T05:30:12.197Z,100634.53
2023-05-05T05:32:13.880Z,100640.78
2023-05-05T05:34:15.606Z,100632.44
2023-05-05T05:36:17.191Z,100638.38
2023-05-05T05:38:20.127Z,100636.47
2023-05-05T05:40:21.707Z,100635.63
2023-05-05T05:42:23.326Z,100642.84
2023-05-05T05:44:25.054Z,100643.81
2023-05-05T05:46:26.762Z,100646.22
2023-05-05T05:48:28.543Z,100647.97
2023-05-05T05:50:30.178Z,100649.78
2023-05-05T05:52:31.779Z,100650.22
2023-05-05T05:54:34.716Z,100653.91
2023-05-05T05:56:36.323Z,100650.06
2023-05-05T05:58:37.964Z,100657.13
2023-05-05T06:00:39.569Z,100651.03
2023-05-05T06:02:41.267Z,100656.13
2023-05-05T06:04:43.035Z,100654.34
2023-05-05T06:06:44.815Z,100665.56
2023-05-05T06:08:46.551Z,100660.41
2023-05-05T06:10:49.475Z,100668.25
2023-05-05T06:12:51.043Z,100665.38
2023-05-05T06:14:52.624Z,100669.69
2023-05-05T06:16:54.382Z,100667.09
2023-05-05T06:18:55.964Z,100671.09
2023-05-05T06:20:57.533Z,100667.41
2023-05-05T06:22:59.141Z,100667.72
2023-05-05T06:25:00.694Z,100665.59
2023-05-05T06:27:03.828Z,100670.53
2023-05-05T06:29:05.521Z,100674.88
2023-05-05T06:31:07.256Z,100667.34
2023-05-05T06:33:09.103Z,100673.28
2023-05-05T06:35:10.787Z,100667.47
2023-05-05T06:37:12.354Z,100670.69
2023-05-05T06:39:15.912Z,100672.59
2023-05-05T06:41:17.809Z,100674.53
2023-05-05T06:43:20.856Z,100669.56
2023-05-05T06:45:22.465Z,100665.34
2023-05-05T06:47:24.120Z,100672.06
2023-05-05T06:49:25.714Z,100669.81
2023-05-05T06:51:27.287Z,100670.78
2023-05-05T06:53:28.968Z,100675.28
2023-05-05T06:55:31.011Z,100676.22
2023-05-05T06:57:32.720Z,100673.16
2023-05-05T06:59:35.661Z,100671.03
2023-05-05T07:01:37.294Z,100672.66
2023-05-05T07:03:38.986Z,100681.91
2023-05-05T07:05:40.651Z,100683.66
2023-05-05T07:07:50.687Z,100687.47
2023-05-05T07:09:52.332Z,100686.66
2023-05-05T07:11:54.376Z,100678.94
2023-05-05T07:13:55.929Z,100684.22
2023-05-05T07:15:59.464Z,100684.59
2023-05-05T07:18:01.143Z,100681.25
2023-05-05T07:20:02.795Z,100681.34
2023-05-05T07:22:04.411Z,100681.16
2023-05-05T07:24:06.661Z,100682.19
2023-05-05T07:26:08.453Z,100683.13
2023-05-05T07:28:10.336Z,100681.50
2023-05-05T07:30:16.329Z,100690.41
2023-05-05T07:32:21.261Z,100684.28
2023-05-05T07:34:22.971Z,100693.84
2023-05-05T07:36:24.725Z,100690.47
2023-05-05T07:38:26.354Z,100689.78
2023-05-05T07:40:27.973Z,100685.81
2023-05-05T07:42:29.576Z,100677.28
2023-05-05T07:44:31.157Z,100683.94
2023-05-05T07:46:32.890Z,100686.91
2023-05-05T07:48:35.985Z,100682.91
2023-05-05T07:50:37.597Z,100691.63
2023-05-05T07:54:43.672Z,100685.34
2023-05-05T07:56:45.265Z,100680.13
2023-05-05T07:58:46.794Z,100680.59
2023-05-05T08:00:48.339Z,100681.03
2023-05-05T08:02:50.109Z,100680.59
2023-05-05T08:04:53.141Z,100669.19
2023-05-05T08:06:54.682Z,100679.66
2023-05-05T08:08:56.338Z,100675.13
2023-05-05T08:10:57.964Z,100671.44
2023-05-05T08:12:59.626Z,100671.56
2023-05-05T08:15:01.233Z,100672.47
2023-05-05T08:17:02.910Z,100665.63
2023-05-05T08:19:09.693Z,100668.13
2023-05-05T08:21:17.702Z,100668.34
2023-05-05T08:23:19.414Z,100665.00
2023-05-05T08:25:21.177Z,100669.59
2023-05-05T08:27:22.783Z,100673.22
2023-05-05T08:29:24.505Z,100664.22
2023-05-05T08:31:27.113Z,100669.09
2023-05-05T08:33:28.818Z,100663.28
2023-05-05T08:35:30.389Z,100668.16
2023-05-05T08:37:33.351Z,100665.41
2023-05-05T08:39:34.968Z,100660.38
2023-05-05T08:41:36.657Z,100665.78
2023-05-05T08:43:38.340Z,100654.53
2023-05-05T08:45:40.952Z,100657.50
2023-05-05T08:47:42.938Z,100658.06
2023-05-05T08:49:45.883Z,100657.94
2023-05-05T08:51:48.187Z,100659.66
2023-05-05T08:53:59.927Z,100663.28
2023-05-05T08:56:04.132Z,100646.13
2023-05-05T08:58:06.414Z,100656.81
2023-05-05T09:00:09.182Z,100658.88
2023-05-05T09:02:13.903Z,100659.19
2023-05-05T09:04:16.113Z,100655.75
2023-05-05T09:06:21.096Z,100659.44
2023-05-05T09:08:23.022Z,100656.81
2023-05-05T09:10:26.794Z,100653.75
2023-05-05T09:12:30.639Z,100651.53
2023-05-05T09:14:32.312Z,100658.63
2023-05-05T09:16:33.986Z,100659.41
2023-05-05T09:18:37.122Z,100641.34
2023-05-05T09:20:40.007Z,100642.69
2023-05-05T09:22:43.243Z,100644.09
2023-05-05T09:24:54.939Z,100640.72
2023-05-05T09:26:59.139Z,100637.72
2023-05-05T09:29:01.673Z,100637.00
2023-05-05T09:31:13.503Z,100631.25
2023-05-05T09:33:29.156Z,100627.25
2023-05-05T09:35:48.370Z,100624.69
2023-05-05T09:37:50.204Z,100621.16
2023-05-05T09:39:54.448Z,100626.72
2023-05-05T09:41:56.073Z,100622.75
2023-05-05T09:43:59.002Z,100619.00
2023-05-05T09:46:07.535Z,100623.06
2023-05-05T09:48:23.911Z,100616.91
2023-05-05T09:50:25.757Z,100617.81
2023-05-05T09:52:27.620Z,100623.66
2023-05-05T09:54:30.417Z,100614.69
2023-05-05T09:56:38.776Z,100618.63
2023-05-05T09:58:40.424Z,100615.06
2023-05-05T10:00:43.592Z,100613.91
2023-05-05T10:02:45.662Z,100613.53
2023-05-05T10:04:47.690Z,100610.78
2023-05-05T10:06:49.354Z,100616.94
2023-05-05T10:09:01.168Z,100614.59
2023-05-05T10:11:04.567Z,100614.25
2023-05-05T10:13:06.213Z,100621.41
2023-05-05T10:15:09.858Z,100619.13
2023-05-05T10:17:14.577Z,100615.28
2023-05-05T10:19:17.605Z,100612.28
2023-05-05T10:21:20.670Z,100613.19
2023-05-05T10:23:23.708Z,100608.19
2023-05-05T10:25:29.612Z,100611.06
2023-05-05T10:27:38.545Z,100608.31
2023-05-05T10:29:48.382Z,100610.78
2023-05-05T10:31:53.916Z,100605.34
2023-05-05T10:34:03.347Z,100608.16
2023-05-05T10:36:06.069Z,100608.16
2023-05-05T10:38:08.740Z,100600.72
2023-05-05T10:40:11.109Z,100594.41
2023-05-05T10:42:14.911Z,100600.13
2023-05-05T10:44:16.735Z,100601.38
2023-05-05T10:46:18.525Z,100588.94
2023-05-05T10:48:29.962Z,100590.66
2023-05-05T10:50:38.360Z,100593.84
2023-05-05T10:52:47.584Z,100592.28
2023-05-05T10:54:55.720Z,100594.66
2023-05-05T10:56:59.550Z,100586.75
2023-05-05T10:59:01.124Z,100589.59
2023-05-05T11:01:03.158Z,100583.25
2023-05-05T11:03:24.264Z,100576.94
2023-05-05T11:05:25.962Z,100581.41
2023-05-05T11:07:28.930Z,100577.09
2023-05-05T11:09:30.499Z,100577.66
2023-05-05T11:12:11.639Z,100577.66
2023-05-05T11:14:22.045Z,100577.75
2023-05-05T11:16:43.698Z,100570.34
2023-05-05T11:18:45.401Z,100564.06
2023-05-05T11:21:02.818Z,100566.13
2023-05-05T11:23:24.424Z,100564.53
2023-05-05T11:25:47.954Z,100555.63
2023-05-05T11:28:04.711Z,100556.06
2023-05-05T11:30:10.738Z,100562.03
2023-05-05T11:32:13.216Z,100551.91
2023-05-05T11:34:24.970Z,100544.94
2023-05-05T11:36:39.813Z,100549.81
2023-05-05T11:39:01.551Z,100546.84
2023-05-05T11:41:13.595Z,100539.88
2023-05-05T11:43:19.282Z,100535.97
2023-05-05T11:45:22.746Z,100551.44
2023-05-05T11:47:29.354Z,100539.22
2023-05-05T11:49:32.272Z,100538.13
2023-05-05T11:51:34.225Z,100535.38
2023-05-05T11:53:35.984Z,100536.47
2023-05-05T11:55:39.001Z,100535.75
2023-05-05T11:57:40.658Z,100536.56
2023-05-05T11:59:54.714Z,100525.16
2023-05-05T12:01:56.432Z,100528.38
2023-05-05T12:03:58.570Z,100520.72
2023-05-05T12:06:00.457Z,100515.94
2023-05-05T12:08:02.128Z,100520.28
2023-05-05T12:10:04.364Z,100519.53
2023-05-05T12:12:07.590Z,100513.59
2023-05-05T12:14:09.423Z,100515.06
2023-05-05T12:16:11.664Z,100523.13
2023-05-05T12:18:18.348Z,100520.38
2023-05-05T12:20:29.438Z,100510.44
2023-05-05T12:22:31.060Z,100508.84
2023-05-05T12:24:32.764Z,100505.53
2023-05-05T12:26:34.476Z,100510.47
2023-05-05T12:28:47.608Z,100505.22
2023-05-05T12:30:56.270Z,100508.25
2023-05-05T12:33:02.870Z,100509.19
2023-05-05T12:35:06.330Z,100501.91
2023-05-05T12:37:08.100Z,100509.75
2023-05-05T12:39:09.709Z,100502.97
2023-05-05T12:41:21.701Z,100495.34
2023-05-05T12:43:28.605Z,100496.03
2023-05-05T12:45:34.606Z,100491.44
2023-05-05T12:47:36.342Z,100492.47
2023-05-05T12:49:48.559Z,100494.00
2023-05-05T12:51:54.350Z,100482.56
2023-05-05T12:54:03.835Z,100476.94
2023-05-05T12:56:05.925Z,100473.03
2023-05-05T12:58:07.596Z,100472.75
2023-05-05T13:00:16.457Z,100478.28
2023-05-05T13:02:20.544Z,100473.97
2023-05-05T13:04:23.637Z,100466.81
2023-05-05T13:06:26.814Z,100468.38
2023-05-05T13:08:42.636Z,100462.44
2023-05-05T13:10:59.924Z,100446.16
2023-05-05T13:13:02.547Z,100453.56
2023-05-05T13:15:05.644Z,100450.41
2023-05-05T13:17:08.272Z,100456.03
2023-05-05T13:19:12.429Z,100446.19
2023-05-05T13:21:14.148Z,100435.91
2023-05-05T13:23:15.766Z,100447.78
2023-05-05T13:25:17.404Z,100447.00
2023-05-05T13:27:19.075Z,100440.25
2023-05-05T13:29:20.707Z,100444.19
2023-05-05T13:31:22.535Z,100430.34
2023-05-05T13:33:24.912Z,100433.38
2023-05-05T13:35:27.902Z,100428.59
2023-05-05T13:37:29.512Z,100432.09
2023-05-05T13:39:32.782Z,100432.50
2023-05-05T13:41:34.491Z,100425.78
2023-05-05T13:43:36.518Z,100424.84
2023-05-05T13:45:41.958Z,100425.28
2023-05-05T13:47:43.892Z,100427.69
2023-05-05T13:49:47.921Z,100423.72
2023-05-05T13:51:50.880Z,100426.50
2023-05-05T13:53:52.534Z,100433.63
2023-05-05T13:55:54.236Z,100427.63
2023-05-05T13:57:55.919Z,100426.41
2023-05-05T13:59:57.602Z,100427.53
2023-05-05T14:01:59.183Z,100423.19
2023-05-05T14:04:03.668Z,100422.75
2023-05-05T14:06:07.427Z,100419.94
2023-05-05T14:08:11.317Z,100417.88
2023-05-05T14:10:13.414Z,100420.22
2023-05-05T14:12:15.090Z,100408.72
2023-05-05T14:14:17.061Z,100408.75
2023-05-05T14:16:19.106Z,100408.69
2023-05-05T14:18:20.893Z,100402.38
2023-05-05T14:20:22.771Z,100401.22
2023-05-05T14:22:24.743Z,100397.69
2023-05-05T14:24:27.863Z,100403.59
2023-05-05T14:26:29.408Z,100400.38
2023-05-05T14:28:31.199Z,100397.19
2023-05-05T14:30:33.127Z,100390.09
2023-05-05T14:32:34.745Z,100390.84
2023-05-05T14:34:36.838Z,100396.34
2023-05-05T14:36:38.512Z,100397.94
2023-05-05T14:38:40.258Z,100404.19
2023-05-05T14:40:43.279Z,100393.56
2023-05-05T14:42:44.862Z,100397.88
2023-05-05T14:44:46.736Z,100403.72
2023-05-05T14:46:50.955Z,100402.09
2023-05-05T14:48:52.838Z,100397.28
2023-05-05T14:50:54.729Z,100405.13
2023-05-05T14:52:56.458Z,100402.34
2023-05-05T14:54:58.142Z,100399.94
2023-05-05T14:57:01.197Z,100396.75
2023-05-05T14:59:02.823Z,100410.84
2023-05-05T15:01:04.623Z,100403.78
2023-05-05T15:03:06.486Z,100405.72
2023-05-05T15:05:08.748Z,100401.72
2023-05-05T15:07:10.583Z,100392.63
2023-05-05T15:09:12.245Z,100392.59
2023-05-05T15:11:13.882Z,100387.09
2023-05-05T15:13:16.930Z,100391.75
2023-05-05T15:15:18.665Z,100391.69
2023-05-05T15:17:20.438Z,100395.22
2023-05-05T15:19:22.281Z,100389.66
2023-05-05T15:21:23.911Z,100405.00
2023-05-05T15:23:25.551Z,100397.53
2023-05-05T15:25:27.105Z,100403.47
2023-05-05T15:27:28.826Z,100409.41
2023-05-05T15:29:31.820Z,100409.78
2023-05-05T15:31:33.398Z,100430.28
2023-05-05T15:33:35.047Z,100425.09
2023-05-05T15:35:36.784Z,100428.19
2023-05-05T15:37:38.366Z,100442.63
2023-05-05T15:39:39.954Z,100451.97
2023-05-05T15:41:41.565Z,100449.84
2023-05-05T15:43:43.160Z,100450.16
2023-05-05T15:45:46.228Z,100452.91
2023-05-05T15:47:47.931Z,100449.00
2023-05-05T15:49:49.647Z,100443.44
2023-05-05T15:51:51.295Z,100443.78
2023-05-05T15:53:52.989Z,100439.38
2023-05-05T15:55:54.577Z,100448.00
2023-05-05T15:57:56.238Z,100450.28
2023-05-05T15:59:57.848Z,100454.56
2023-05-05T16:02:00.933Z,100461.66
2023-05-05T16:04:02.534Z,100467.13
2023-05-05T16:06:04.226Z,100481.19
2023-05-05T16:08:05.817Z,100476.75
2023-05-05T16:10:08.829Z,100486.19
2023-05-05T16:12:10.674Z,100495.19
2023-05-05T16:14:12.612Z,100507.28
2023-05-05T16:16:14.234Z,100520.28
2023-05-05T16:18:17.627Z,100537.09
2023-05-05T16:20:19.321Z,100544.84
2023-05-05T16:22:20.948Z,100542.03
2023-05-05T16:24:23.218Z,100544.78
2023-05-05T16:26:25.153Z,100551.44
2023-05-05T16:28:27.099Z,100553.03
2023-05-05T16:30:28.695Z,100557.97
2023-05-05T16:32:30.320Z,100552.03
2023-05-05T16:34:33.452Z,100547.50
2023-05-05T16:36:35.442Z,100548.50
2023-05-05T16:38:37.456Z,100543.44
2023-05-05T16:40:39.539Z,100538.75
2023-05-05T16:42:42.966Z,100538.59
2023-05-05T16:44:45.933Z,100541.16
2023-05-05T16:46:47.550Z,100530.50
2023-05-05T16:48:49.479Z,100527.31
2023-05-05T16:50:56.354Z,100535.50
2023-05-05T16:52:58.266Z,100523.00
2023-05-05T16:55:00.403Z,100524.56
2023-05-05T16:57:04.967Z,100528.38
2023-05-05T16:59:06.677Z,100526.28
2023-05-05T17:01:08.574Z,100528.50
2023-05-05T17:03:10.340Z,100534.28
2023-05-05T17:05:12.498Z,100527.66
2023-05-05T17:07:16.346Z,100527.84
2023-05-05T17:09:18.026Z,100517.34
2023-05-05T17:11:19.629Z,100521.06
2023-05-05T17:13:21.776Z,100516.59
2023-05-05T17:15:23.317Z,100519.69
2023-05-05T17:17:25.153Z,100520.13
2023-05-05T17:19:27.027Z,100527.94
2023-05-05T17:21:28.716Z,100527.03
2023-05-05T17:23:31.691Z,100520.25
2023-05-05T17:25:33.399Z,100519.00
2023-05-05T17:27:35.244Z,100522.91
2023-05-05T17:29:36.878Z,100520.50
2023-05-05T17:31:38.641Z,100527.03
2023-05-05T17:33:40.223Z,100528.28
2023-05-05T17:35:42.139Z,100534.47
2023-05-05T17:37:43.825Z,100536.53
2023-05-05T17:39:46.830Z,100533.22
2023-05-05T17:41:48.451Z,100535.09
2023-05-05T17:43:50.044Z,100535.34
2023-05-05T17:45:51.738Z,100533.44
2023-05-05T17:47:53.403Z,100531.31
2023-05-05T17:49:56.993Z,100533.59
2023-05-05T17:51:58.753Z,100528.72
2023-05-05T17:54:00.458Z,100534.56
2023-05-05T17:56:03.794Z,100526.59
2023-05-05T17:58:05.353Z,100534.81
2023-05-05T18:00:08.117Z,100524.22
2023-05-05T18:02:10.172Z,100531.72
2023-05-05T18:04:11.845Z,100530.56
2023-05-05T18:06:13.527Z,100538.81
2023-05-05T18:08:15.227Z,100544.19
2023-05-05T18:10:16.977Z,100542.53
2023-05-05T18:12:20.086Z,100546.69
2023-05-05T18:14:21.944Z,100550.81
2023-05-05T18:16:23.678Z,100550.38
2023-05-05T18:18:25.479Z,100550.81
2023-05-05T18:20:29.553Z,100551.25
2023-05-05T18:22:31.605Z,100551.78
2023-05-05T18:24:33.263Z,100554.84
2023-05-05T18:26:35.551Z,100548.50
2023-05-05T18:28:38.909Z,100552.75
2023-05-05T18:30:40.730Z,100549.00
2023-05-05T18:32:42.508Z,100558.47
2023-05-05T18:34:44.600Z,100556.88
2023-05-05T18:36:46.799Z,100561.13
2023-05-05T18:38:49.888Z,100575.63
2023-05-05T18:40:51.763Z,100567.41
2023-05-05T18:42:53.548Z,100568.66
2023-05-05T18:44:56.632Z,100565.31
2023-05-05T18:46:58.816Z,100566.34
2023-05-05T18:49:00.852Z,100567.41
2023-05-05T18:51:03.143Z,100567.75
2023-05-05T18:53:04.863Z,100561.50
2023-05-05T18:55:07.320Z,100567.56
2023-05-05T18:57:09.525Z,100565.50
2023-05-05T18:59:12.441Z,100580.00
2023-05-05T19:01:18.144Z,100583.53
2023-05-05T19:03:20.158Z,100584.22
2023-05-05T19:05:22.102Z,100588.78
2023-05-05T19:07:34.260Z,100596.22
2023-05-05T19:09:36.850Z,100590.75
2023-05-05T19:11:38.755Z,100594.84
2023-05-05T19:13:41.597Z,100596.03
2023-05-05T19:15:43.388Z,100599.78
2023-05-05T19:17:46.617Z,100602.19
2023-05-05T19:19:49.627Z,100604.56
2023-05-05T19:21:51.377Z,100612.00
2023-05-05T19:23:53.404Z,100604.69
2023-05-05T19:25:55.323Z,100601.06
2023-05-05T19:27:57.066Z,100606.88
2023-05-05T19:29:58.881Z,100610.88
2023-05-05T19:32:00.759Z,100605.72
2023-05-05T19:34:05.308Z,100619.31
2023-05-05T19:36:07.326Z,100622.41
2023-05-05T19:38:10.331Z,100620.00
2023-05-05T19:40:13.277Z,100611.78
2023-05-05T19:42:16.066Z,100618.75
2023-05-05T19:44:17.660Z,100613.75
2023-05-05T19:46:20.061Z,100622.31
2023-05-05T19:48:22.291Z,100619.78
2023-05-05T19:50:25.690Z,100618.53
2023-05-05T19:52:27.713Z,100622.63
2023-05-05T19:54:30.087Z,100619.28
2023-05-05T19:56:31.803Z,100621.25
2023-05-05T19:58:52.963Z,100629.34
2023-05-05T20:00:54.673Z,100631.97
2023-05-05T20:02:56.498Z,100627.06
2023-05-05T20:04:58.254Z,100627.75
2023-05-05T20:07:01.383Z,100624.91
2023-05-05T20:09:03.426Z,100631.50
2023-05-05T20:11:05.523Z,100628.66
2023-05-05T20:13:07.217Z,100622.59
2023-05-05T20:15:10.542Z,100626.13
2023-05-05T20:17:12.205Z,100633.53
2023-05-05T20:19:15.450Z,100620.44
2023-05-05T20:21:17.556Z,100613.91
2023-05-05T20:23:20.887Z,100616.28
2023-05-05T20:25:22.762Z,100615.03
2023-05-05T20:27:26.664Z,100624.16
2023-05-05T20:29:29.873Z,100625.75
2023-05-05T20:31:31.624Z,100626.88
2023-05-05T20:33:33.377Z,100617.75
2023-05-05T20:35:35.228Z,100619.34
2023-05-05T20:37:36.822Z,100627.44
2023-05-05T20:39:39.875Z,100627.09
2023-05-05T20:41:41.702Z,100630.97
2023-05-05T20:43:43.661Z,100632.44
2023-05-05T20:45:45.260Z,100636.31
2023-05-05T20:47:47.217Z,100631.97
2023-05-05T20:49:48.978Z,100636.38
2023-05-05T20:51:50.616Z,100632.88
2023-05-05T20:53:52.441Z,100638.09
2023-05-05T20:55:55.499Z,100643.25
2023-05-05T20:57:57.161Z,100646.31
2023-05-05T20:59:59.627Z,100649.50
2023-05-05T21:02:01.396Z,100648.25
2023-05-05T21:04:03.102Z,100651.78
2023-05-05T21:06:05.113Z,100651.78
2023-05-05T21:08:07.160Z,100651.19
2023-05-05T21:10:09.869Z,100654.28
2023-05-05T21:12:13.127Z,100651.19
2023-05-05T21:14:14.799Z,100644.47
2023-05-05T21:16:16.634Z,100646.94
2023-05-05T21:18:18.363Z,100640.00
2023-05-05T21:20:20.317Z,100645.94
2023-05-05T21:22:22.467Z,100649.16
2023-05-05T21:24:24.519Z,100651.41
2023-05-05T21:26:26.168Z,100647.44
2023-05-05T21:28:29.238Z,100647.25
2023-05-05T21:30:30.856Z,100642.78
2023-05-05T21:32:32.514Z,100642.66
2023-05-05T21:34:34.325Z,100641.06
2023-05-05T21:36:36.079Z,100637.19
2023-05-05T21:38:37.724Z,100635.13
2023-05-05T21:40:39.393Z,100643.47
2023-05-05T21:42:41.348Z,100643.78
2023-05-05T21:44:44.357Z,100633.75
2023-05-05T21:46:46.419Z,100639.88
2023-05-05T21:48:48.059Z,100641.09
2023-05-05T21:50:49.802Z,100638.03
2023-05-05T21:52:51.556Z,100631.41
2023-05-05T21:54:53.261Z,100641.22
2023-05-05T21:56:54.849Z,100646.56
2023-05-05T21:58:56.577Z,100649.59
2023-05-05T22:00:59.707Z,100654.28
2023-05-05T22:03:01.391Z,100645.09
2023-05-05T22:05:03.211Z,100649.88
2023-05-05T22:07:05.020Z,100647.00
2023-05-05T22:09:06.655Z,100648.81
2023-05-05T22:11:08.390Z,100641.94
2023-05-05T22:13:10.036Z,100642.41
2023-05-05T22:15:11.942Z,100648.41
2023-05-05T22:17:15.510Z,100639.94
2023-05-05T22:19:19.021Z,100645.94
2023-05-05T22:21:21.072Z,100651.28
2023-05-05T22:23:22.746Z,100645.88
2023-05-05T22:25:24.436Z,100640.78
2023-05-05T22:27:26.079Z,100650.59
2023-05-05T22:29:27.667Z,100648.38
2023-05-05T22:31:29.552Z,100645.66
2023-05-05T22:33:32.589Z,100649.53
2023-05-05T22:35:34.282Z,100655.78
2023-05-05T22:37:36.046Z,100656.13
2023-05-05T22:39:37.941Z,100652.25
2023-05-05T22:41:39.543Z,100648.25
2023-05-05T22:43:41.219Z,100652.78
2023-05-05T22:45:43.431Z,100658.56
2023-05-05T22:47:45.024Z,100656.50
2023-05-05T22:49:48.084Z,100656.44
2023-05-05T22:51:49.641Z,100643.59
2023-05-05T22:53:51.189Z,100646.66
2023-05-05T22:55:52.863Z,100654.03
2023-05-05T22:57:54.969Z,100655.31
2023-05-05T22:59:56.456Z,100655.50
2023-05-05T23:01:58.077Z,100654.69
2023-05-05T23:04:00.188Z,100657.44
2023-05-05T23:06:03.368Z,100654.22
2023-05-05T23:08:05.047Z,100651.84
2023-05-05T23:10:07.477Z,100658.41
2023-05-05T23:12:09.044Z,100656.81
2023-05-05T23:14:11.034Z,100659.88
2023-05-05T23:16:12.694Z,100649.63
2023-05-05T23:18:14.365Z,100661.50
2023-05-05T23:20:16.259Z,100667.13
2023-05-05T23:22:19.428Z,100658.81
2023-05-05T23:24:21.889Z,100652.88
2023-05-05T23:26:23.456Z,100651.94
2023-05-05T23:28:25.049Z,100651.47
2023-05-05T23:30:26.678Z,100652.13